sensor_id;sensor_type;location;lat;lon;timestamp;temperature;humidity
61585;DHT22;47479;53.810;18.308;2022-12-07T00:02:13;3.10;87.00
61585;DHT22;47479;53.810;18.308;2022-12-07T00:07:14;3.10;87.00
61585;DHT22;47479;53.810;18.308;2022-12-07T00:12:16;3.00;87.30
61585;DHT22;47479;53.810;18.308;2022-12-07T00:17:18;3.10;87.00
61585;DHT22;47479;53.810;18.308;2022-12-07T00:22:32;3.10;87.10
61585;DHT22;47479;53.810;18.308;2022-12-07T00:27:33;3.00;87.20
61585;DHT22;47479;53.810;18.308;2022-12-07T00:32:35;3.00;87.70
61585;DHT22;47479;53.810;18.308;2022-12-07T00:37:36;3.00;87.40
61585;DHT22;47479;53.810;18.308;2022-12-07T00:42:38;3.00;87.50
61585;DHT22;47479;53.810;18.308;2022-12-07T00:47:40;3.00;87.40
61585;DHT22;47479;53.810;18.308;2022-12-07T00:52:41;2.90;87.70
61585;DHT22;47479;53.810;18.308;2022-12-07T00:57:44;3.00;87.60
61585;DHT22;47479;53.810;18.308;2022-12-07T01:02:46;3.00;87.60
61585;DHT22;47479;53.810;18.308;2022-12-07T01:07:48;3.10;87.50
61585;DHT22;47479;53.810;18.308;2022-12-07T01:12:49;3.00;87.40
61585;DHT22;47479;53.810;18.308;2022-12-07T01:17:51;3.00;87.60
61585;DHT22;47479;53.810;18.308;2022-12-07T01:22:53;3.10;87.80
61585;DHT22;47479;53.810;18.308;2022-12-07T01:27:55;3.10;87.80
61585;DHT22;47479;53.810;18.308;2022-12-07T01:32:56;3.20;87.60
61585;DHT22;47479;53.810;18.308;2022-12-07T01:37:58;3.30;87.30
61585;DHT22;47479;53.810;18.308;2022-12-07T01:43:00;3.30;87.20
61585;DHT22;47479;53.810;18.308;2022-12-07T01:48:02;3.30;87.00
61585;DHT22;47479;53.810;18.308;2022-12-07T01:53:06;3.30;86.90
61585;DHT22;47479;53.810;18.308;2022-12-07T01:58:17;3.30;87.20
61585;DHT22;47479;53.810;18.308;2022-12-07T02:03:24;3.40;87.00
61585;DHT22;47479;53.810;18.308;2022-12-07T02:08:22;3.30;87.40
61585;DHT22;47479;53.810;18.308;2022-12-07T02:13:26;3.40;87.10
61585;DHT22;47479;53.810;18.308;2022-12-07T02:29:27;3.40;87.30
61585;DHT22;47479;53.810;18.308;2022-12-07T02:34:56;3.40;87.30
61585;DHT22;47479;53.810;18.308;2022-12-07T02:40:05;3.40;87.20
61585;DHT22;47479;53.810;18.308;2022-12-07T02:45:07;3.30;87.50
61585;DHT22;47479;53.810;18.308;2022-12-07T02:50:10;3.40;87.60
61585;DHT22;47479;53.810;18.308;2022-12-07T02:55:14;3.30;88.00
61585;DHT22;47479;53.810;18.308;2022-12-07T03:00:20;3.40;88.10
61585;DHT22;47479;53.810;18.308;2022-12-07T03:05:29;3.30;88.30
61585;DHT22;47479;53.810;18.308;2022-12-07T03:20:58;3.30;88.80
61585;DHT22;47479;53.810;18.308;2022-12-07T03:26:00;3.30;88.90
61585;DHT22;47479;53.810;18.308;2022-12-07T03:31:22;3.30;89.10
61585;DHT22;47479;53.810;18.308;2022-12-07T03:36:32;3.30;88.90
61585;DHT22;47479;53.810;18.308;2022-12-07T03:41:34;3.20;89.10
61585;DHT22;47479;53.810;18.308;2022-12-07T03:52:00;3.20;89.10
61585;DHT22;47479;53.810;18.308;2022-12-07T03:57:15;3.20;89.10
61585;DHT22;47479;53.810;18.308;2022-12-07T04:02:18;3.30;89.10
61585;DHT22;47479;53.810;18.308;2022-12-07T04:07:20;3.20;89.00
61585;DHT22;47479;53.810;18.308;2022-12-07T04:12:22;3.30;88.90
61585;DHT22;47479;53.810;18.308;2022-12-07T04:17:24;3.30;88.70
61585;DHT22;47479;53.810;18.308;2022-12-07T04:22:26;3.30;88.60
61585;DHT22;47479;53.810;18.308;2022-12-07T04:27:27;3.20;88.70
61585;DHT22;47479;53.810;18.308;2022-12-07T04:32:29;3.20;88.80
61585;DHT22;47479;53.810;18.308;2022-12-07T04:37:31;3.20;88.70
61585;DHT22;47479;53.810;18.308;2022-12-07T04:42:34;3.40;88.60
61585;DHT22;47479;53.810;18.308;2022-12-07T04:47:35;3.40;88.40
61585;DHT22;47479;53.810;18.308;2022-12-07T04:52:37;3.40;88.30
61585;DHT22;47479;53.810;18.308;2022-12-07T04:57:39;3.50;88.00
61585;DHT22;47479;53.810;18.308;2022-12-07T05:02:40;3.50;87.90
61585;DHT22;47479;53.810;18.308;2022-12-07T05:07:42;3.50;88.00
61585;DHT22;47479;53.810;18.308;2022-12-07T05:12:44;3.50;87.80
61585;DHT22;47479;53.810;18.308;2022-12-07T05:17:46;3.50;87.90
61585;DHT22;47479;53.810;18.308;2022-12-07T05:23:03;3.50;88.10
61585;DHT22;47479;53.810;18.308;2022-12-07T05:28:05;3.50;88.20
61585;DHT22;47479;53.810;18.308;2022-12-07T05:33:07;3.50;88.20
61585;DHT22;47479;53.810;18.308;2022-12-07T05:38:09;3.60;88.10
61585;DHT22;47479;53.810;18.308;2022-12-07T05:43:11;3.60;88.20
61585;DHT22;47479;53.810;18.308;2022-12-07T05:48:13;3.60;88.10
61585;DHT22;47479;53.810;18.308;2022-12-07T05:53:15;3.70;88.10
61585;DHT22;47479;53.810;18.308;2022-12-07T05:58:17;3.80;87.70
61585;DHT22;47479;53.810;18.308;2022-12-07T06:03:57;3.70;87.80
61585;DHT22;47479;53.810;18.308;2022-12-07T06:09:15;3.70;87.50
61585;DHT22;47479;53.810;18.308;2022-12-07T06:17:56;3.70;86.80
61585;DHT22;47479;53.810;18.308;2022-12-07T06:22:57;3.60;86.40
61585;DHT22;47479;53.810;18.308;2022-12-07T06:27:59;3.50;86.20
61585;DHT22;47479;53.810;18.308;2022-12-07T06:33:01;3.40;85.60
61585;DHT22;47479;53.810;18.308;2022-12-07T06:38:03;3.40;85.40
61585;DHT22;47479;53.810;18.308;2022-12-07T06:43:04;3.20;85.20
61585;DHT22;47479;53.810;18.308;2022-12-07T06:48:06;3.20;85.30
61585;DHT22;47479;53.810;18.308;2022-12-07T06:53:07;3.10;85.50
61585;DHT22;47479;53.810;18.308;2022-12-07T06:58:10;3.10;85.50
61585;DHT22;47479;53.810;18.308;2022-12-07T07:03:12;3.00;85.70
61585;DHT22;47479;53.810;18.308;2022-12-07T07:08:14;3.00;86.00
61585;DHT22;47479;53.810;18.308;2022-12-07T07:13:16;2.90;86.40
61585;DHT22;47479;53.810;18.308;2022-12-07T07:18:18;2.90;86.50
61585;DHT22;47479;53.810;18.308;2022-12-07T07:23:20;2.90;86.40
61585;DHT22;47479;53.810;18.308;2022-12-07T07:28:22;2.90;86.30
61585;DHT22;47479;53.810;18.308;2022-12-07T07:33:24;2.90;86.30
61585;DHT22;47479;53.810;18.308;2022-12-07T07:38:44;2.90;86.20
61585;DHT22;47479;53.810;18.308;2022-12-07T07:43:45;3.00;85.70
61585;DHT22;47479;53.810;18.308;2022-12-07T07:48:47;3.10;85.50
61585;DHT22;47479;53.810;18.308;2022-12-07T07:53:49;3.20;85.20
61585;DHT22;47479;53.810;18.308;2022-12-07T07:58:54;3.20;85.20
61585;DHT22;47479;53.810;18.308;2022-12-07T08:03:55;3.30;84.80
61585;DHT22;47479;53.810;18.308;2022-12-07T08:08:57;3.40;84.60
61585;DHT22;47479;53.810;18.308;2022-12-07T08:13:59;3.50;84.50
61585;DHT22;47479;53.810;18.308;2022-12-07T08:19:01;3.60;84.50
61585;DHT22;47479;53.810;18.308;2022-12-07T08:24:04;3.60;84.20
61585;DHT22;47479;53.810;18.308;2022-12-07T08:29:06;3.70;84.00
61585;DHT22;47479;53.810;18.308;2022-12-07T08:34:10;3.70;84.10
61585;DHT22;47479;53.810;18.308;2022-12-07T08:39:11;3.70;84.00
61585;DHT22;47479;53.810;18.308;2022-12-07T08:44:13;3.60;83.70
61585;DHT22;47479;53.810;18.308;2022-12-07T08:49:20;3.60;83.60
61585;DHT22;47479;53.810;18.308;2022-12-07T08:54:39;3.60;83.50
61585;DHT22;47479;53.810;18.308;2022-12-07T08:59:41;3.60;83.30
61585;DHT22;47479;53.810;18.308;2022-12-07T09:04:42;3.50;82.70
61585;DHT22;47479;53.810;18.308;2022-12-07T09:09:44;3.50;82.80
61585;DHT22;47479;53.810;18.308;2022-12-07T09:14:46;3.50;82.30
61585;DHT22;47479;53.810;18.308;2022-12-07T09:19:47;3.50;81.70
61585;DHT22;47479;53.810;18.308;2022-12-07T09:24:49;3.50;82.40
61585;DHT22;47479;53.810;18.308;2022-12-07T09:29:51;3.50;82.10
61585;DHT22;47479;53.810;18.308;2022-12-07T09:34:52;3.60;82.00
61585;DHT22;47479;53.810;18.308;2022-12-07T09:39:54;3.60;81.70
61585;DHT22;47479;53.810;18.308;2022-12-07T09:44:56;3.60;81.80
61585;DHT22;47479;53.810;18.308;2022-12-07T09:50:12;3.70;81.20
61585;DHT22;47479;53.810;18.308;2022-12-07T09:55:07;3.70;80.90
61585;DHT22;47479;53.810;18.308;2022-12-07T10:00:13;3.70;81.30
61585;DHT22;47479;53.810;18.308;2022-12-07T10:05:13;3.70;81.20
61585;DHT22;47479;53.810;18.308;2022-12-07T10:10:17;3.80;80.90
61585;DHT22;47479;53.810;18.308;2022-12-07T10:15:17;3.80;80.60
61585;DHT22;47479;53.810;18.308;2022-12-07T10:20:30;3.80;80.40
61585;DHT22;47479;53.810;18.308;2022-12-07T10:25:33;3.70;80.60
61585;DHT22;47479;53.810;18.308;2022-12-07T10:30:49;3.70;80.00
61585;DHT22;47479;53.810;18.308;2022-12-07T10:35:51;3.80;80.10
61585;DHT22;47479;53.810;18.308;2022-12-07T10:41:06;3.80;79.90
61585;DHT22;47479;53.810;18.308;2022-12-07T10:46:20;3.80;79.70
61585;DHT22;47479;53.810;18.308;2022-12-07T11:01:57;3.80;79.40
61585;DHT22;47479;53.810;18.308;2022-12-07T11:07:22;3.90;79.20
61585;DHT22;47479;53.810;18.308;2022-12-07T11:28:26;3.70;79.10
61585;DHT22;47479;53.810;18.308;2022-12-07T11:33:46;3.80;79.30
61585;DHT22;47479;53.810;18.308;2022-12-07T11:38:54;3.80;78.70
61585;DHT22;47479;53.810;18.308;2022-12-07T11:44:07;3.60;79.00
61585;DHT22;47479;53.810;18.308;2022-12-07T11:49:15;3.50;78.80
61585;DHT22;47479;53.810;18.308;2022-12-07T11:54:23;3.40;79.10
61585;DHT22;47479;53.810;18.308;2022-12-07T12:04:45;3.50;79.10
61585;DHT22;47479;53.810;18.308;2022-12-07T12:09:54;3.40;79.00
61585;DHT22;47479;53.810;18.308;2022-12-07T12:20:31;3.30;79.50
61585;DHT22;47479;53.810;18.308;2022-12-07T12:25:37;3.30;79.60
61585;DHT22;47479;53.810;18.308;2022-12-07T12:30:39;3.30;79.50
61585;DHT22;47479;53.810;18.308;2022-12-07T12:35:42;3.40;79.90
61585;DHT22;47479;53.810;18.308;2022-12-07T12:40:44;3.30;79.80
61585;DHT22;47479;53.810;18.308;2022-12-07T12:45:45;3.30;79.80
61585;DHT22;47479;53.810;18.308;2022-12-07T12:50:47;3.30;80.00
61585;DHT22;47479;53.810;18.308;2022-12-07T12:56:17;3.30;80.20
61585;DHT22;47479;53.810;18.308;2022-12-07T13:01:38;3.20;80.50
61585;DHT22;47479;53.810;18.308;2022-12-07T13:06:41;3.20;80.60
61585;DHT22;47479;53.810;18.308;2022-12-07T13:11:44;3.20;80.70
61585;DHT22;47479;53.810;18.308;2022-12-07T13:16:46;3.20;80.50
61585;DHT22;47479;53.810;18.308;2022-12-07T13:21:48;3.10;80.70
61585;DHT22;47479;53.810;18.308;2022-12-07T13:26:51;3.10;80.60
61585;DHT22;47479;53.810;18.308;2022-12-07T13:31:55;3.10;80.50
61585;DHT22;47479;53.810;18.308;2022-12-07T13:37:26;3.10;80.80
61585;DHT22;47479;53.810;18.308;2022-12-07T13:42:29;3.20;80.40
61585;DHT22;47479;53.810;18.308;2022-12-07T13:47:36;3.20;80.40
61585;DHT22;47479;53.810;18.308;2022-12-07T13:52:43;3.10;80.30
61585;DHT22;47479;53.810;18.308;2022-12-07T13:57:41;3.00;80.40
61585;DHT22;47479;53.810;18.308;2022-12-07T14:03:27;2.90;80.50
61585;DHT22;47479;53.810;18.308;2022-12-07T14:13:35;2.60;80.60
61585;DHT22;47479;53.810;18.308;2022-12-07T14:18:41;2.60;80.60
61585;DHT22;47479;53.810;18.308;2022-12-07T14:23:43;2.50;80.60
61585;DHT22;47479;53.810;18.308;2022-12-07T14:28:46;2.50;81.10
61585;DHT22;47479;53.810;18.308;2022-12-07T14:33:47;2.40;81.40
61585;DHT22;47479;53.810;18.308;2022-12-07T14:38:49;2.40;81.40
61585;DHT22;47479;53.810;18.308;2022-12-07T14:43:51;2.40;81.50
61585;DHT22;47479;53.810;18.308;2022-12-07T14:48:53;2.50;81.50
61585;DHT22;47479;53.810;18.308;2022-12-07T14:53:55;2.60;81.40
61585;DHT22;47479;53.810;18.308;2022-12-07T14:58:56;2.60;81.20
61585;DHT22;47479;53.810;18.308;2022-12-07T15:03:58;2.50;81.00
61585;DHT22;47479;53.810;18.308;2022-12-07T15:09:01;2.40;81.20
61585;DHT22;47479;53.810;18.308;2022-12-07T15:14:02;2.40;81.10
61585;DHT22;47479;53.810;18.308;2022-12-07T15:19:14;2.40;81.20
61585;DHT22;47479;53.810;18.308;2022-12-07T15:24:30;2.50;80.90
61585;DHT22;47479;53.810;18.308;2022-12-07T15:29:31;2.50;80.80
61585;DHT22;47479;53.810;18.308;2022-12-07T15:34:33;2.50;80.90
61585;DHT22;47479;53.810;18.308;2022-12-07T15:39:36;2.50;80.70
61585;DHT22;47479;53.810;18.308;2022-12-07T15:44:38;2.40;80.60
61585;DHT22;47479;53.810;18.308;2022-12-07T15:50:07;2.40;81.10
61585;DHT22;47479;53.810;18.308;2022-12-07T15:55:09;2.40;81.10
61585;DHT22;47479;53.810;18.308;2022-12-07T16:00:11;2.40;81.10
61585;DHT22;47479;53.810;18.308;2022-12-07T16:05:13;2.40;81.10
61585;DHT22;47479;53.810;18.308;2022-12-07T16:10:17;2.30;81.40
61585;DHT22;47479;53.810;18.308;2022-12-07T16:15:18;2.40;81.10
61585;DHT22;47479;53.810;18.308;2022-12-07T16:20:36;2.40;80.90
61585;DHT22;47479;53.810;18.308;2022-12-07T16:25:38;2.30;81.10
61585;DHT22;47479;53.810;18.308;2022-12-07T16:30:39;2.30;81.10
61585;DHT22;47479;53.810;18.308;2022-12-07T16:35:41;2.30;81.10
61585;DHT22;47479;53.810;18.308;2022-12-07T16:40:43;2.30;81.30
61585;DHT22;47479;53.810;18.308;2022-12-07T16:45:46;2.30;81.30
61585;DHT22;47479;53.810;18.308;2022-12-07T16:50:49;2.30;81.60
61585;DHT22;47479;53.810;18.308;2022-12-07T16:55:51;2.30;81.90
61585;DHT22;47479;53.810;18.308;2022-12-07T17:00:53;2.30;82.70
61585;DHT22;47479;53.810;18.308;2022-12-07T17:05:55;2.30;82.70
61585;DHT22;47479;53.810;18.308;2022-12-07T17:10:56;2.20;82.70
61585;DHT22;47479;53.810;18.308;2022-12-07T17:16:01;2.00;83.10
61585;DHT22;47479;53.810;18.308;2022-12-07T17:21:04;1.90;83.20
61585;DHT22;47479;53.810;18.308;2022-12-07T17:26:08;1.90;83.40
61585;DHT22;47479;53.810;18.308;2022-12-07T17:31:11;1.70;83.70
61585;DHT22;47479;53.810;18.308;2022-12-07T17:36:31;1.60;84.10
61585;DHT22;47479;53.810;18.308;2022-12-07T17:41:33;1.60;84.20
61585;DHT22;47479;53.810;18.308;2022-12-07T17:47:13;1.60;84.30
61585;DHT22;47479;53.810;18.308;2022-12-07T17:52:17;1.60;84.40
61585;DHT22;47479;53.810;18.308;2022-12-07T17:57:57;1.50;84.70
61585;DHT22;47479;53.810;18.308;2022-12-07T18:03:09;1.50;84.60
61585;DHT22;47479;53.810;18.308;2022-12-07T18:08:12;1.50;84.80
61585;DHT22;47479;53.810;18.308;2022-12-07T18:13:13;1.60;84.80
61585;DHT22;47479;53.810;18.308;2022-12-07T18:18:38;1.70;84.50
61585;DHT22;47479;53.810;18.308;2022-12-07T18:23:42;1.70;84.60
61585;DHT22;47479;53.810;18.308;2022-12-07T18:28:44;1.80;83.70
61585;DHT22;47479;53.810;18.308;2022-12-07T18:33:47;1.90;83.50
61585;DHT22;47479;53.810;18.308;2022-12-07T18:38:50;1.90;82.90
61585;DHT22;47479;53.810;18.308;2022-12-07T18:43:51;1.60;83.30
61585;DHT22;47479;53.810;18.308;2022-12-07T18:48:56;1.40;83.70
61585;DHT22;47479;53.810;18.308;2022-12-07T18:53:58;1.40;84.20
61585;DHT22;47479;53.810;18.308;2022-12-07T18:59:16;1.40;84.60
61585;DHT22;47479;53.810;18.308;2022-12-07T19:04:46;1.50;84.80
61585;DHT22;47479;53.810;18.308;2022-12-07T19:09:47;1.60;84.70
61585;DHT22;47479;53.810;18.308;2022-12-07T19:14:49;1.80;84.20
61585;DHT22;47479;53.810;18.308;2022-12-07T19:19:50;1.90;83.80
61585;DHT22;47479;53.810;18.308;2022-12-07T19:24:53;2.00;83.10
61585;DHT22;47479;53.810;18.308;2022-12-07T19:29:55;2.00;81.90
61585;DHT22;47479;53.810;18.308;2022-12-07T19:34:56;2.00;81.70
61585;DHT22;47479;53.810;18.308;2022-12-07T19:39:59;2.00;81.80
61585;DHT22;47479;53.810;18.308;2022-12-07T19:45:01;1.90;82.00
61585;DHT22;47479;53.810;18.308;2022-12-07T19:50:03;1.80;82.00
61585;DHT22;47479;53.810;18.308;2022-12-07T19:55:22;1.50;82.40
61585;DHT22;47479;53.810;18.308;2022-12-07T20:00:24;1.40;82.90
61585;DHT22;47479;53.810;18.308;2022-12-07T20:05:26;1.30;83.50
61585;DHT22;47479;53.810;18.308;2022-12-07T20:10:28;1.20;84.00
61585;DHT22;47479;53.810;18.308;2022-12-07T20:15:30;1.00;84.50
61585;DHT22;47479;53.810;18.308;2022-12-07T20:20:32;1.20;83.90
61585;DHT22;47479;53.810;18.308;2022-12-07T20:25:36;1.20;84.00
61585;DHT22;47479;53.810;18.308;2022-12-07T20:30:48;1.30;83.60
61585;DHT22;47479;53.810;18.308;2022-12-07T20:35:50;1.20;83.70
61585;DHT22;47479;53.810;18.308;2022-12-07T20:40:51;1.10;84.10
61585;DHT22;47479;53.810;18.308;2022-12-07T20:45:53;1.00;84.70
61585;DHT22;47479;53.810;18.308;2022-12-07T20:51:03;1.00;84.50
61585;DHT22;47479;53.810;18.308;2022-12-07T20:55:59;1.00;84.70
61585;DHT22;47479;53.810;18.308;2022-12-07T21:01:02;1.00;84.90
61585;DHT22;47479;53.810;18.308;2022-12-07T21:06:04;1.00;84.70
61585;DHT22;47479;53.810;18.308;2022-12-07T21:11:18;1.00;84.40
61585;DHT22;47479;53.810;18.308;2022-12-07T21:16:21;1.00;84.30
61585;DHT22;47479;53.810;18.308;2022-12-07T21:21:23;1.00;84.40
61585;DHT22;47479;53.810;18.308;2022-12-07T21:26:25;1.00;84.20
61585;DHT22;47479;53.810;18.308;2022-12-07T21:31:28;1.00;84.10
61585;DHT22;47479;53.810;18.308;2022-12-07T21:36:31;0.90;83.90
61585;DHT22;47479;53.810;18.308;2022-12-07T21:41:34;0.90;84.10
61585;DHT22;47479;53.810;18.308;2022-12-07T21:46:36;0.90;83.90
61585;DHT22;47479;53.810;18.308;2022-12-07T21:51:40;0.90;83.70
61585;DHT22;47479;53.810;18.308;2022-12-07T21:56:42;1.00;83.40
61585;DHT22;47479;53.810;18.308;2022-12-07T22:01:46;0.90;83.30
61585;DHT22;47479;53.810;18.308;2022-12-07T22:06:49;0.90;83.30
61585;DHT22;47479;53.810;18.308;2022-12-07T22:11:51;1.00;83.30
61585;DHT22;47479;53.810;18.308;2022-12-07T22:16:53;1.00;83.50
61585;DHT22;47479;53.810;18.308;2022-12-07T22:21:54;1.00;83.70
61585;DHT22;47479;53.810;18.308;2022-12-07T22:27:11;1.10;83.70
61585;DHT22;47479;53.810;18.308;2022-12-07T22:32:12;1.10;83.70
61585;DHT22;47479;53.810;18.308;2022-12-07T22:37:14;1.10;83.60
61585;DHT22;47479;53.810;18.308;2022-12-07T22:42:15;1.20;83.40
61585;DHT22;47479;53.810;18.308;2022-12-07T22:47:17;1.20;83.30
61585;DHT22;47479;53.810;18.308;2022-12-07T22:52:19;1.30;83.00
61585;DHT22;47479;53.810;18.308;2022-12-07T22:57:20;1.30;83.10
61585;DHT22;47479;53.810;18.308;2022-12-07T23:02:22;1.20;83.00
61585;DHT22;47479;53.810;18.308;2022-12-07T23:07:24;1.10;83.30
61585;DHT22;47479;53.810;18.308;2022-12-07T23:12:26;1.10;83.40
61585;DHT22;47479;53.810;18.308;2022-12-07T23:18:06;1.10;83.50
61585;DHT22;47479;53.810;18.308;2022-12-07T23:23:18;1.10;83.40
61585;DHT22;47479;53.810;18.308;2022-12-07T23:28:20;1.00;83.50
61585;DHT22;47479;53.810;18.308;2022-12-07T23:33:21;0.90;84.10
61585;DHT22;47479;53.810;18.308;2022-12-07T23:38:24;0.70;84.40
61585;DHT22;47479;53.810;18.308;2022-12-07T23:43:27;0.60;84.90
61585;DHT22;47479;53.810;18.308;2022-12-07T23:48:28;0.50;85.20
61585;DHT22;47479;53.810;18.308;2022-12-07T23:53:34;0.40;85.60
61585;DHT22;47479;53.810;18.308;2022-12-07T23:58:36;0.50;85.60
